sensor_id;sensor_type;location;lat;lon;timestamp;P1;durP1;ratioP1;P2;durP2;ratioP2
9222;SDS011;7557;51.698;3.942;2023-09-19T00:00:17;930.97;;;872.85;;
9222;SDS011;7557;51.698;3.942;2023-09-19T00:02:46;999.05;;;928.13;;
9222;SDS011;7557;51.698;3.942;2023-09-19T00:05:18;1049.05;;;966.53;;
9222;SDS011;7557;51.698;3.942;2023-09-19T00:07:49;1020.88;;;946.83;;
9222;SDS011;7557;51.698;3.942;2023-09-19T00:10:19;1025.68;;;950.25;;
9222;SDS011;7557;51.698;3.942;2023-09-19T00:12:51;960.75;;;895.30;;
9222;SDS011;7557;51.698;3.942;2023-09-19T00:15:20;934.78;;;871.80;;
9222;SDS011;7557;51.698;3.942;2023-09-19T00:17:47;935.05;;;873.88;;
9222;SDS011;7557;51.698;3.942;2023-09-19T00:20:17;946.42;;;878.53;;
9222;SDS011;7557;51.698;3.942;2023-09-19T00:22:46;883.65;;;828.03;;
9222;SDS011;7557;51.698;3.942;2023-09-19T00:25:14;884.83;;;830.42;;
9222;SDS011;7557;51.698;3.942;2023-09-19T00:27:42;787.45;;;741.80;;
9222;SDS011;7557;51.698;3.942;2023-09-19T00:30:12;851.67;;;802.80;;
9222;SDS011;7557;51.698;3.942;2023-09-19T00:32:42;910.47;;;852.05;;
9222;SDS011;7557;51.698;3.942;2023-09-19T00:35:09;949.97;;;886.00;;
9222;SDS011;7557;51.698;3.942;2023-09-19T00:37:37;931.67;;;870.17;;
9222;SDS011;7557;51.698;3.942;2023-09-19T00:40:06;1015.33;;;941.65;;
9222;SDS011;7557;51.698;3.942;2023-09-19T00:42:37;990.97;;;919.60;;
9222;SDS011;7557;51.698;3.942;2023-09-19T00:48:28;983.53;;;914.10;;
9222;SDS011;7557;51.698;3.942;2023-09-19T00:50:57;1028.90;;;952.45;;
9222;SDS011;7557;51.698;3.942;2023-09-19T00:53:30;1129.20;;;999.90;;
9222;SDS011;7557;51.698;3.942;2023-09-19T00:55:59;938.13;;;878.22;;
9222;SDS011;7557;51.698;3.942;2023-09-19T00:58:26;904.05;;;849.05;;
9222;SDS011;7557;51.698;3.942;2023-09-19T01:00:57;973.45;;;907.35;;
9222;SDS011;7557;51.698;3.942;2023-09-19T01:03:25;1008.22;;;936.33;;
9222;SDS011;7557;51.698;3.942;2023-09-19T01:05:53;988.55;;;918.50;;
9222;SDS011;7557;51.698;3.942;2023-09-19T01:08:21;1056.22;;;973.38;;
9222;SDS011;7557;51.698;3.942;2023-09-19T01:10:51;1079.95;;;991.00;;
9222;SDS011;7557;51.698;3.942;2023-09-19T01:13:29;1056.25;;;973.03;;
9222;SDS011;7557;51.698;3.942;2023-09-19T01:16:04;1171.40;;;999.90;;
9222;SDS011;7557;51.698;3.942;2023-09-19T01:18:39;1135.32;;;999.90;;
9222;SDS011;7557;51.698;3.942;2023-09-19T01:21:15;1090.93;;;994.20;;
9222;SDS011;7557;51.698;3.942;2023-09-19T01:26:53;1145.35;;;999.90;;
9222;SDS011;7557;51.698;3.942;2023-09-19T01:29:34;1148.88;;;999.90;;
9222;SDS011;7557;51.698;3.942;2023-09-19T01:32:08;1205.18;;;999.90;;
9222;SDS011;7557;51.698;3.942;2023-09-19T01:34:43;1238.88;;;999.90;;
9222;SDS011;7557;51.698;3.942;2023-09-19T01:37:14;1240.72;;;999.90;;
9222;SDS011;7557;51.698;3.942;2023-09-19T01:39:45;1207.65;;;999.90;;
9222;SDS011;7557;51.698;3.942;2023-09-19T01:42:18;1198.85;;;999.90;;
9222;SDS011;7557;51.698;3.942;2023-09-19T01:44:51;1154.57;;;999.90;;
9222;SDS011;7557;51.698;3.942;2023-09-19T01:47:28;1188.18;;;999.90;;
9222;SDS011;7557;51.698;3.942;2023-09-19T01:50:02;1118.25;;;999.90;;
9222;SDS011;7557;51.698;3.942;2023-09-19T01:52:38;1159.97;;;999.90;;
9222;SDS011;7557;51.698;3.942;2023-09-19T01:55:15;1172.00;;;999.90;;
9222;SDS011;7557;51.698;3.942;2023-09-19T01:57:48;1220.05;;;999.90;;
9222;SDS011;7557;51.698;3.942;2023-09-19T02:00:20;1172.13;;;999.90;;
9222;SDS011;7557;51.698;3.942;2023-09-19T02:02:50;1246.75;;;999.90;;
9222;SDS011;7557;51.698;3.942;2023-09-19T02:05:24;1236.18;;;999.90;;
9222;SDS011;7557;51.698;3.942;2023-09-19T02:07:52;1231.05;;;999.90;;
9222;SDS011;7557;51.698;3.942;2023-09-19T02:10:21;1212.90;;;999.90;;
9222;SDS011;7557;51.698;3.942;2023-09-19T02:12:48;1202.88;;;999.90;;
9222;SDS011;7557;51.698;3.942;2023-09-19T02:15:16;1150.82;;;999.90;;
9222;SDS011;7557;51.698;3.942;2023-09-19T02:17:44;1176.18;;;999.90;;
9222;SDS011;7557;51.698;3.942;2023-09-19T02:20:13;1227.05;;;999.90;;
9222;SDS011;7557;51.698;3.942;2023-09-19T02:22:42;1214.90;;;999.90;;
9222;SDS011;7557;51.698;3.942;2023-09-19T02:25:09;1251.32;;;999.90;;
9222;SDS011;7557;51.698;3.942;2023-09-19T02:27:38;1248.32;;;999.90;;
9222;SDS011;7557;51.698;3.942;2023-09-19T02:30:06;1217.65;;;999.90;;
9222;SDS011;7557;51.698;3.942;2023-09-19T02:32:34;1236.10;;;999.90;;
9222;SDS011;7557;51.698;3.942;2023-09-19T02:35:05;1320.60;;;999.90;;
9222;SDS011;7557;51.698;3.942;2023-09-19T02:37:35;1382.50;;;999.90;;
9222;SDS011;7557;51.698;3.942;2023-09-19T02:40:02;1411.60;;;999.90;;
9222;SDS011;7557;51.698;3.942;2023-09-19T02:42:31;1341.68;;;999.90;;
9222;SDS011;7557;51.698;3.942;2023-09-19T02:44:58;1364.88;;;999.90;;
9222;SDS011;7557;51.698;3.942;2023-09-19T02:47:26;1348.60;;;999.90;;
9222;SDS011;7557;51.698;3.942;2023-09-19T02:49:53;1335.53;;;999.90;;
9222;SDS011;7557;51.698;3.942;2023-09-19T02:52:20;1288.28;;;999.90;;
9222;SDS011;7557;51.698;3.942;2023-09-19T02:54:49;1395.28;;;999.90;;
9222;SDS011;7557;51.698;3.942;2023-09-19T02:57:16;1296.07;;;999.90;;
9222;SDS011;7557;51.698;3.942;2023-09-19T02:59:44;1354.38;;;999.90;;
9222;SDS011;7557;51.698;3.942;2023-09-19T03:02:12;1304.30;;;999.90;;
9222;SDS011;7557;51.698;3.942;2023-09-19T03:04:39;1372.03;;;999.90;;
9222;SDS011;7557;51.698;3.942;2023-09-19T03:07:06;1376.53;;;999.90;;
9222;SDS011;7557;51.698;3.942;2023-09-19T03:09:36;1436.80;;;999.90;;
9222;SDS011;7557;51.698;3.942;2023-09-19T03:12:05;1408.57;;;999.90;;
9222;SDS011;7557;51.698;3.942;2023-09-19T03:14:33;1285.53;;;999.90;;
9222;SDS011;7557;51.698;3.942;2023-09-19T03:17:00;1327.45;;;999.90;;
9222;SDS011;7557;51.698;3.942;2023-09-19T03:19:29;1255.55;;;999.90;;
9222;SDS011;7557;51.698;3.942;2023-09-19T03:21:58;1272.45;;;999.90;;
9222;SDS011;7557;51.698;3.942;2023-09-19T03:24:25;1255.80;;;999.90;;
9222;SDS011;7557;51.698;3.942;2023-09-19T03:26:53;1242.72;;;999.90;;
9222;SDS011;7557;51.698;3.942;2023-09-19T03:29:21;1333.13;;;999.90;;
9222;SDS011;7557;51.698;3.942;2023-09-19T03:31:49;1330.20;;;999.90;;
9222;SDS011;7557;51.698;3.942;2023-09-19T03:34:16;1397.80;;;999.90;;
9222;SDS011;7557;51.698;3.942;2023-09-19T03:36:44;1399.38;;;999.90;;
9222;SDS011;7557;51.698;3.942;2023-09-19T03:39:12;1359.50;;;999.90;;
9222;SDS011;7557;51.698;3.942;2023-09-19T03:41:40;1393.25;;;999.90;;
9222;SDS011;7557;51.698;3.942;2023-09-19T03:44:08;1409.53;;;999.90;;
9222;SDS011;7557;51.698;3.942;2023-09-19T03:46:37;1367.38;;;999.90;;
9222;SDS011;7557;51.698;3.942;2023-09-19T03:49:04;1400.53;;;999.90;;
9222;SDS011;7557;51.698;3.942;2023-09-19T03:51:31;1475.82;;;999.90;;
9222;SDS011;7557;51.698;3.942;2023-09-19T03:53:59;1429.30;;;999.90;;
9222;SDS011;7557;51.698;3.942;2023-09-19T03:56:28;1421.97;;;999.90;;
9222;SDS011;7557;51.698;3.942;2023-09-19T03:58:56;1457.60;;;999.90;;
9222;SDS011;7557;51.698;3.942;2023-09-19T04:01:23;1349.60;;;999.90;;
9222;SDS011;7557;51.698;3.942;2023-09-19T04:03:54;1470.07;;;999.90;;
9222;SDS011;7557;51.698;3.942;2023-09-19T04:06:22;1537.10;;;999.90;;
9222;SDS011;7557;51.698;3.942;2023-09-19T04:08:49;1515.32;;;999.90;;
9222;SDS011;7557;51.698;3.942;2023-09-19T04:11:16;1424.50;;;999.90;;
9222;SDS011;7557;51.698;3.942;2023-09-19T04:13:43;1408.50;;;999.90;;
9222;SDS011;7557;51.698;3.942;2023-09-19T04:16:11;1470.32;;;999.90;;
9222;SDS011;7557;51.698;3.942;2023-09-19T04:18:38;1462.40;;;999.90;;
9222;SDS011;7557;51.698;3.942;2023-09-19T04:21:07;1494.28;;;999.90;;
9222;SDS011;7557;51.698;3.942;2023-09-19T04:23:34;1502.38;;;999.90;;
9222;SDS011;7557;51.698;3.942;2023-09-19T04:26:01;1525.65;;;999.90;;
9222;SDS011;7557;51.698;3.942;2023-09-19T04:28:32;1562.82;;;999.90;;
9222;SDS011;7557;51.698;3.942;2023-09-19T04:30:59;1529.57;;;999.90;;
9222;SDS011;7557;51.698;3.942;2023-09-19T04:33:29;1614.78;;;999.90;;
9222;SDS011;7557;51.698;3.942;2023-09-19T04:35:56;1684.78;;;999.90;;
9222;SDS011;7557;51.698;3.942;2023-09-19T04:38:26;1723.63;;;999.90;;
9222;SDS011;7557;51.698;3.942;2023-09-19T04:40:56;1921.82;;;999.90;;
9222;SDS011;7557;51.698;3.942;2023-09-19T04:43:25;1962.45;;;999.90;;
9222;SDS011;7557;51.698;3.942;2023-09-19T04:45:53;1964.93;;;999.90;;
9222;SDS011;7557;51.698;3.942;2023-09-19T04:48:21;1960.43;;;999.90;;
9222;SDS011;7557;51.698;3.942;2023-09-19T04:50:50;1980.47;;;999.90;;
9222;SDS011;7557;51.698;3.942;2023-09-19T04:53:17;1990.28;;;999.90;;
9222;SDS011;7557;51.698;3.942;2023-09-19T04:55:51;1892.28;;;999.90;;
9222;SDS011;7557;51.698;3.942;2023-09-19T04:58:23;1881.15;;;999.90;;
9222;SDS011;7557;51.698;3.942;2023-09-19T05:00:50;1982.97;;;999.90;;
9222;SDS011;7557;51.698;3.942;2023-09-19T05:03:18;1999.90;;;999.90;;
9222;SDS011;7557;51.698;3.942;2023-09-19T05:05:46;1992.35;;;999.90;;
9222;SDS011;7557;51.698;3.942;2023-09-19T05:08:13;1999.90;;;999.90;;
9222;SDS011;7557;51.698;3.942;2023-09-19T05:10:41;1997.45;;;999.90;;
9222;SDS011;7557;51.698;3.942;2023-09-19T05:13:10;1999.15;;;999.90;;
9222;SDS011;7557;51.698;3.942;2023-09-19T05:15:37;1999.90;;;999.90;;
9222;SDS011;7557;51.698;3.942;2023-09-19T05:18:05;1999.90;;;999.90;;
9222;SDS011;7557;51.698;3.942;2023-09-19T05:20:35;1999.90;;;999.90;;
9222;SDS011;7557;51.698;3.942;2023-09-19T05:23:04;1992.82;;;999.90;;
9222;SDS011;7557;51.698;3.942;2023-09-19T05:25:37;1999.90;;;999.90;;
9222;SDS011;7557;51.698;3.942;2023-09-19T05:28:06;1999.90;;;999.90;;
9222;SDS011;7557;51.698;3.942;2023-09-19T05:30:35;1963.40;;;999.90;;
9222;SDS011;7557;51.698;3.942;2023-09-19T05:33:03;1999.90;;;999.90;;
9222;SDS011;7557;51.698;3.942;2023-09-19T05:35:31;1999.90;;;999.90;;
9222;SDS011;7557;51.698;3.942;2023-09-19T05:37:58;1999.90;;;999.90;;
9222;SDS011;7557;51.698;3.942;2023-09-19T05:40:26;1999.90;;;999.90;;
9222;SDS011;7557;51.698;3.942;2023-09-19T05:42:53;1999.90;;;999.90;;
9222;SDS011;7557;51.698;3.942;2023-09-19T05:45:21;1999.90;;;999.90;;
9222;SDS011;7557;51.698;3.942;2023-09-19T05:47:50;1999.90;;;999.90;;
9222;SDS011;7557;51.698;3.942;2023-09-19T05:50:21;1999.90;;;999.90;;
9222;SDS011;7557;51.698;3.942;2023-09-19T05:52:53;1999.90;;;999.90;;
9222;SDS011;7557;51.698;3.942;2023-09-19T05:55:21;1999.90;;;999.90;;
9222;SDS011;7557;51.698;3.942;2023-09-19T05:57:50;1999.90;;;999.90;;
9222;SDS011;7557;51.698;3.942;2023-09-19T06:00:17;1999.90;;;999.90;;
9222;SDS011;7557;51.698;3.942;2023-09-19T06:02:50;1999.90;;;999.90;;
9222;SDS011;7557;51.698;3.942;2023-09-19T06:05:22;1999.90;;;999.90;;
9222;SDS011;7557;51.698;3.942;2023-09-19T06:07:50;1999.90;;;999.90;;
9222;SDS011;7557;51.698;3.942;2023-09-19T06:10:17;1999.90;;;999.90;;
9222;SDS011;7557;51.698;3.942;2023-09-19T06:12:45;1999.90;;;999.90;;
9222;SDS011;7557;51.698;3.942;2023-09-19T06:15:13;1999.90;;;999.90;;
9222;SDS011;7557;51.698;3.942;2023-09-19T06:17:46;1999.90;;;999.90;;
9222;SDS011;7557;51.698;3.942;2023-09-19T06:20:15;1999.90;;;999.90;;
9222;SDS011;7557;51.698;3.942;2023-09-19T06:22:45;1999.90;;;999.90;;
9222;SDS011;7557;51.698;3.942;2023-09-19T06:25:20;1999.90;;;999.90;;
9222;SDS011;7557;51.698;3.942;2023-09-19T06:27:48;1999.90;;;999.90;;
9222;SDS011;7557;51.698;3.942;2023-09-19T06:30:17;1999.90;;;999.90;;
9222;SDS011;7557;51.698;3.942;2023-09-19T06:32:45;1999.90;;;999.90;;
9222;SDS011;7557;51.698;3.942;2023-09-19T06:35:13;1999.90;;;999.90;;
9222;SDS011;7557;51.698;3.942;2023-09-19T06:37:42;1999.90;;;999.90;;
9222;SDS011;7557;51.698;3.942;2023-09-19T06:40:10;1999.90;;;999.90;;
9222;SDS011;7557;51.698;3.942;2023-09-19T06:42:40;1999.90;;;999.90;;
9222;SDS011;7557;51.698;3.942;2023-09-19T06:45:08;1999.90;;;999.90;;
9222;SDS011;7557;51.698;3.942;2023-09-19T06:47:42;1999.90;;;999.90;;
9222;SDS011;7557;51.698;3.942;2023-09-19T06:50:11;1999.90;;;999.90;;
9222;SDS011;7557;51.698;3.942;2023-09-19T06:52:41;1999.90;;;999.90;;
9222;SDS011;7557;51.698;3.942;2023-09-19T06:55:08;1999.90;;;999.90;;
9222;SDS011;7557;51.698;3.942;2023-09-19T06:57:38;1999.90;;;999.90;;
9222;SDS011;7557;51.698;3.942;2023-09-19T07:00:06;1999.90;;;999.90;;
9222;SDS011;7557;51.698;3.942;2023-09-19T07:02:40;1999.90;;;999.90;;
9222;SDS011;7557;51.698;3.942;2023-09-19T07:05:08;1999.90;;;999.90;;
9222;SDS011;7557;51.698;3.942;2023-09-19T07:07:35;1999.90;;;999.90;;
9222;SDS011;7557;51.698;3.942;2023-09-19T07:10:05;1999.90;;;999.90;;
9222;SDS011;7557;51.698;3.942;2023-09-19T07:12:33;1999.90;;;999.90;;
9222;SDS011;7557;51.698;3.942;2023-09-19T07:14:59;1999.90;;;999.90;;
9222;SDS011;7557;51.698;3.942;2023-09-19T07:17:26;1999.90;;;999.90;;
9222;SDS011;7557;51.698;3.942;2023-09-19T07:19:55;1999.90;;;999.90;;
9222;SDS011;7557;51.698;3.942;2023-09-19T07:22:23;1999.90;;;999.90;;
9222;SDS011;7557;51.698;3.942;2023-09-19T07:24:50;1999.90;;;999.90;;
9222;SDS011;7557;51.698;3.942;2023-09-19T07:27:20;1999.90;;;999.90;;
9222;SDS011;7557;51.698;3.942;2023-09-19T07:29:50;1999.90;;;999.90;;
9222;SDS011;7557;51.698;3.942;2023-09-19T07:32:17;1999.90;;;999.90;;
9222;SDS011;7557;51.698;3.942;2023-09-19T07:34:45;1999.90;;;999.90;;
9222;SDS011;7557;51.698;3.942;2023-09-19T07:37:12;1999.90;;;999.90;;
9222;SDS011;7557;51.698;3.942;2023-09-19T07:39:41;1999.90;;;999.90;;
9222;SDS011;7557;51.698;3.942;2023-09-19T07:42:13;1999.90;;;999.90;;
9222;SDS011;7557;51.698;3.942;2023-09-19T07:44:44;1999.90;;;999.90;;
9222;SDS011;7557;51.698;3.942;2023-09-19T07:47:14;1999.90;;;999.90;;
9222;SDS011;7557;51.698;3.942;2023-09-19T07:49:42;1999.90;;;999.90;;
9222;SDS011;7557;51.698;3.942;2023-09-19T07:52:09;1999.90;;;999.90;;
9222;SDS011;7557;51.698;3.942;2023-09-19T07:54:37;1999.90;;;999.90;;
9222;SDS011;7557;51.698;3.942;2023-09-19T07:57:06;1999.90;;;999.90;;
9222;SDS011;7557;51.698;3.942;2023-09-19T07:59:34;1999.90;;;999.90;;
9222;SDS011;7557;51.698;3.942;2023-09-19T08:02:05;1999.90;;;999.90;;
9222;SDS011;7557;51.698;3.942;2023-09-19T08:04:33;1999.90;;;999.90;;
9222;SDS011;7557;51.698;3.942;2023-09-19T08:07:00;1904.68;;;999.90;;
9222;SDS011;7557;51.698;3.942;2023-09-19T08:09:32;1984.65;;;999.90;;
9222;SDS011;7557;51.698;3.942;2023-09-19T08:12:00;1911.57;;;999.90;;
9222;SDS011;7557;51.698;3.942;2023-09-19T08:14:30;1940.90;;;999.90;;
9222;SDS011;7557;51.698;3.942;2023-09-19T08:17:00;1793.28;;;999.90;;
9222;SDS011;7557;51.698;3.942;2023-09-19T08:19:33;1590.53;;;999.90;;
9222;SDS011;7557;51.698;3.942;2023-09-19T08:22:05;1399.88;;;999.90;;
9222;SDS011;7557;51.698;3.942;2023-09-19T08:24:37;1350.35;;;999.90;;
9222;SDS011;7557;51.698;3.942;2023-09-19T08:27:04;1395.45;;;999.90;;
9222;SDS011;7557;51.698;3.942;2023-09-19T08:29:40;1380.22;;;999.90;;
9222;SDS011;7557;51.698;3.942;2023-09-19T08:32:08;1364.45;;;999.90;;
9222;SDS011;7557;51.698;3.942;2023-09-19T08:34:37;1387.53;;;999.90;;
9222;SDS011;7557;51.698;3.942;2023-09-19T08:37:05;1453.57;;;999.90;;
9222;SDS011;7557;51.698;3.942;2023-09-19T08:39:36;1467.07;;;999.90;;
9222;SDS011;7557;51.698;3.942;2023-09-19T08:42:04;1451.00;;;999.90;;
9222;SDS011;7557;51.698;3.942;2023-09-19T08:44:35;1426.82;;;999.90;;
9222;SDS011;7557;51.698;3.942;2023-09-19T08:47:14;1456.65;;;999.90;;
9222;SDS011;7557;51.698;3.942;2023-09-19T08:49:59;1355.57;;;999.90;;
9222;SDS011;7557;51.698;3.942;2023-09-19T08:52:40;1402.53;;;999.90;;
9222;SDS011;7557;51.698;3.942;2023-09-19T08:55:11;1440.75;;;999.90;;
9222;SDS011;7557;51.698;3.942;2023-09-19T08:57:46;1411.13;;;999.90;;
9222;SDS011;7557;51.698;3.942;2023-09-19T09:00:19;1484.78;;;999.90;;
9222;SDS011;7557;51.698;3.942;2023-09-19T09:02:48;1243.55;;;999.90;;
9222;SDS011;7557;51.698;3.942;2023-09-19T09:05:21;1404.90;;;999.90;;
9222;SDS011;7557;51.698;3.942;2023-09-19T09:07:52;1373.75;;;999.90;;
9222;SDS011;7557;51.698;3.942;2023-09-19T09:10:22;1311.68;;;999.90;;
9222;SDS011;7557;51.698;3.942;2023-09-19T09:12:50;1248.80;;;999.90;;
9222;SDS011;7557;51.698;3.942;2023-09-19T09:15:19;1221.43;;;999.90;;
9222;SDS011;7557;51.698;3.942;2023-09-19T09:17:49;1300.35;;;999.90;;
9222;SDS011;7557;51.698;3.942;2023-09-19T09:20:18;1357.00;;;999.90;;
9222;SDS011;7557;51.698;3.942;2023-09-19T09:22:53;1272.97;;;999.90;;
9222;SDS011;7557;51.698;3.942;2023-09-19T09:25:21;1298.60;;;999.90;;
9222;SDS011;7557;51.698;3.942;2023-09-19T09:27:59;1469.93;;;999.90;;
9222;SDS011;7557;51.698;3.942;2023-09-19T09:30:34;1313.00;;;999.90;;
9222;SDS011;7557;51.698;3.942;2023-09-19T09:33:08;1254.63;;;999.90;;
9222;SDS011;7557;51.698;3.942;2023-09-19T09:35:37;1246.20;;;999.90;;
9222;SDS011;7557;51.698;3.942;2023-09-19T09:38:18;1366.88;;;999.90;;
9222;SDS011;7557;51.698;3.942;2023-09-19T09:40:50;1160.35;;;999.90;;
9222;SDS011;7557;51.698;3.942;2023-09-19T09:46:12;1194.18;;;999.90;;
9222;SDS011;7557;51.698;3.942;2023-09-19T09:49:01;1223.65;;;999.90;;
9222;SDS011;7557;51.698;3.942;2023-09-19T09:51:45;1305.13;;;999.90;;
9222;SDS011;7557;51.698;3.942;2023-09-19T09:54:24;1192.47;;;999.90;;
9222;SDS011;7557;51.698;3.942;2023-09-19T09:57:02;1204.30;;;999.90;;
9222;SDS011;7557;51.698;3.942;2023-09-19T09:59:48;1257.05;;;999.90;;
9222;SDS011;7557;51.698;3.942;2023-09-19T10:02:21;1224.85;;;999.90;;
9222;SDS011;7557;51.698;3.942;2023-09-19T10:04:54;1170.82;;;999.90;;
9222;SDS011;7557;51.698;3.942;2023-09-19T10:07:45;1199.68;;;999.90;;
9222;SDS011;7557;51.698;3.942;2023-09-19T10:10:30;1150.10;;;999.90;;
9222;SDS011;7557;51.698;3.942;2023-09-19T10:13:19;1188.55;;;999.90;;
9222;SDS011;7557;51.698;3.942;2023-09-19T10:15:49;1216.57;;;999.90;;
9222;SDS011;7557;51.698;3.942;2023-09-19T10:18:20;1178.90;;;999.90;;
9222;SDS011;7557;51.698;3.942;2023-09-19T10:20:49;1172.18;;;999.90;;
9222;SDS011;7557;51.698;3.942;2023-09-19T10:23:17;1158.65;;;999.90;;
9222;SDS011;7557;51.698;3.942;2023-09-19T10:25:49;1257.50;;;999.90;;
9222;SDS011;7557;51.698;3.942;2023-09-19T10:28:20;1245.72;;;999.90;;
9222;SDS011;7557;51.698;3.942;2023-09-19T10:30:48;1213.18;;;999.90;;
9222;SDS011;7557;51.698;3.942;2023-09-19T10:33:24;1192.70;;;999.90;;
9222;SDS011;7557;51.698;3.942;2023-09-19T10:36:02;1174.05;;;999.90;;
9222;SDS011;7557;51.698;3.942;2023-09-19T10:38:34;1082.10;;;980.92;;
9222;SDS011;7557;51.698;3.942;2023-09-19T10:41:07;1148.75;;;999.90;;
9222;SDS011;7557;51.698;3.942;2023-09-19T10:43:45;1125.85;;;999.90;;
9222;SDS011;7557;51.698;3.942;2023-09-19T10:46:14;1137.82;;;999.90;;
9222;SDS011;7557;51.698;3.942;2023-09-19T10:48:42;1078.90;;;991.20;;
9222;SDS011;7557;51.698;3.942;2023-09-19T10:51:14;1132.78;;;999.90;;
9222;SDS011;7557;51.698;3.942;2023-09-19T10:53:48;1215.63;;;999.90;;
9222;SDS011;7557;51.698;3.942;2023-09-19T10:56:21;1178.13;;;999.90;;
9222;SDS011;7557;51.698;3.942;2023-09-19T10:58:57;1290.25;;;999.90;;
9222;SDS011;7557;51.698;3.942;2023-09-19T11:01:43;1193.13;;;999.90;;
9222;SDS011;7557;51.698;3.942;2023-09-19T11:04:23;1228.85;;;999.90;;
9222;SDS011;7557;51.698;3.942;2023-09-19T11:07:02;1226.13;;;999.90;;
9222;SDS011;7557;51.698;3.942;2023-09-19T11:09:45;1234.43;;;999.90;;
9222;SDS011;7557;51.698;3.942;2023-09-19T11:21:40;1476.95;;;999.90;;
9222;SDS011;7557;51.698;3.942;2023-09-19T11:24:29;1531.05;;;999.90;;
9222;SDS011;7557;51.698;3.942;2023-09-19T11:27:11;1233.00;;;999.90;;
9222;SDS011;7557;51.698;3.942;2023-09-19T11:33:18;1378.43;;;999.90;;
9222;SDS011;7557;51.698;3.942;2023-09-19T11:36:00;1459.25;;;999.90;;
9222;SDS011;7557;51.698;3.942;2023-09-19T11:41:37;1341.00;;;999.90;;
9222;SDS011;7557;51.698;3.942;2023-09-19T11:47:01;1179.65;;;999.90;;
9222;SDS011;7557;51.698;3.942;2023-09-19T11:49:32;1346.70;;;999.90;;
9222;SDS011;7557;51.698;3.942;2023-09-19T11:52:02;1266.90;;;999.90;;
9222;SDS011;7557;51.698;3.942;2023-09-19T11:54:33;1254.05;;;999.90;;
9222;SDS011;7557;51.698;3.942;2023-09-19T11:57:06;1479.05;;;999.90;;
9222;SDS011;7557;51.698;3.942;2023-09-19T11:59:38;1373.57;;;999.90;;
9222;SDS011;7557;51.698;3.942;2023-09-19T12:02:07;1324.90;;;999.90;;
9222;SDS011;7557;51.698;3.942;2023-09-19T12:04:38;1500.70;;;999.90;;
9222;SDS011;7557;51.698;3.942;2023-09-19T12:07:10;1272.43;;;999.90;;
9222;SDS011;7557;51.698;3.942;2023-09-19T12:09:41;1199.95;;;999.90;;
9222;SDS011;7557;51.698;3.942;2023-09-19T12:12:11;1208.97;;;999.90;;
9222;SDS011;7557;51.698;3.942;2023-09-19T12:14:48;1204.85;;;999.90;;
9222;SDS011;7557;51.698;3.942;2023-09-19T12:17:25;1224.10;;;999.90;;
9222;SDS011;7557;51.698;3.942;2023-09-19T12:20:02;1291.45;;;999.90;;
9222;SDS011;7557;51.698;3.942;2023-09-19T12:22:40;1226.40;;;999.90;;
9222;SDS011;7557;51.698;3.942;2023-09-19T12:25:09;1283.38;;;999.90;;
9222;SDS011;7557;51.698;3.942;2023-09-19T12:27:45;1403.55;;;999.90;;
9222;SDS011;7557;51.698;3.942;2023-09-19T12:30:16;1319.20;;;999.90;;
9222;SDS011;7557;51.698;3.942;2023-09-19T12:32:49;1757.03;;;999.90;;
9222;SDS011;7557;51.698;3.942;2023-09-19T12:35:26;1575.15;;;999.90;;
9222;SDS011;7557;51.698;3.942;2023-09-19T12:38:23;1474.85;;;999.90;;
9222;SDS011;7557;51.698;3.942;2023-09-19T12:40:54;1589.13;;;999.90;;
9222;SDS011;7557;51.698;3.942;2023-09-19T12:43:24;1559.10;;;999.90;;
9222;SDS011;7557;51.698;3.942;2023-09-19T12:45:58;1439.72;;;999.90;;
9222;SDS011;7557;51.698;3.942;2023-09-19T12:48:31;1545.93;;;999.90;;
9222;SDS011;7557;51.698;3.942;2023-09-19T12:51:00;1466.85;;;999.90;;
9222;SDS011;7557;51.698;3.942;2023-09-19T12:53:31;1627.47;;;999.90;;
9222;SDS011;7557;51.698;3.942;2023-09-19T12:56:05;1269.72;;;999.90;;
9222;SDS011;7557;51.698;3.942;2023-09-19T12:58:35;1369.38;;;999.90;;
9222;SDS011;7557;51.698;3.942;2023-09-19T13:01:19;1375.95;;;999.90;;
9222;SDS011;7557;51.698;3.942;2023-09-19T13:06:56;1281.90;;;999.90;;
9222;SDS011;7557;51.698;3.942;2023-09-19T13:09:27;1524.90;;;999.90;;
9222;SDS011;7557;51.698;3.942;2023-09-19T13:11:59;1334.95;;;999.90;;
9222;SDS011;7557;51.698;3.942;2023-09-19T13:14:27;1405.30;;;999.90;;
9222;SDS011;7557;51.698;3.942;2023-09-19T13:16:57;1504.47;;;999.90;;
9222;SDS011;7557;51.698;3.942;2023-09-19T13:19:43;1424.90;;;999.90;;
9222;SDS011;7557;51.698;3.942;2023-09-19T13:25:03;1423.82;;;999.90;;
9222;SDS011;7557;51.698;3.942;2023-09-19T13:27:32;1732.50;;;999.90;;
9222;SDS011;7557;51.698;3.942;2023-09-19T13:29:59;1619.30;;;999.90;;
9222;SDS011;7557;51.698;3.942;2023-09-19T13:32:26;1738.25;;;999.90;;
9222;SDS011;7557;51.698;3.942;2023-09-19T13:34:55;1696.07;;;999.90;;
9222;SDS011;7557;51.698;3.942;2023-09-19T13:37:23;1747.03;;;999.90;;
9222;SDS011;7557;51.698;3.942;2023-09-19T13:39:51;1732.68;;;999.90;;
9222;SDS011;7557;51.698;3.942;2023-09-19T13:42:19;1814.22;;;999.90;;
9222;SDS011;7557;51.698;3.942;2023-09-19T13:44:46;1825.68;;;999.90;;
9222;SDS011;7557;51.698;3.942;2023-09-19T13:47:14;1792.72;;;999.90;;
9222;SDS011;7557;51.698;3.942;2023-09-19T13:49:41;1868.85;;;999.90;;
9222;SDS011;7557;51.698;3.942;2023-09-19T13:52:11;1677.05;;;999.90;;
9222;SDS011;7557;51.698;3.942;2023-09-19T13:54:38;1632.95;;;999.90;;
9222;SDS011;7557;51.698;3.942;2023-09-19T13:57:05;1732.70;;;999.90;;
9222;SDS011;7557;51.698;3.942;2023-09-19T13:59:32;1305.18;;;999.90;;
9222;SDS011;7557;51.698;3.942;2023-09-19T14:02:00;1559.70;;;999.90;;
9222;SDS011;7557;51.698;3.942;2023-09-19T14:04:28;1240.30;;;999.90;;
9222;SDS011;7557;51.698;3.942;2023-09-19T14:06:56;1535.93;;;999.90;;
9222;SDS011;7557;51.698;3.942;2023-09-19T14:09:27;1592.60;;;999.90;;
9222;SDS011;7557;51.698;3.942;2023-09-19T14:11:54;1772.32;;;999.90;;
9222;SDS011;7557;51.698;3.942;2023-09-19T14:14:22;1898.32;;;999.90;;
9222;SDS011;7557;51.698;3.942;2023-09-19T14:16:49;1731.43;;;999.90;;
9222;SDS011;7557;51.698;3.942;2023-09-19T14:19:17;1936.90;;;999.90;;
9222;SDS011;7557;51.698;3.942;2023-09-19T14:21:44;1849.75;;;999.90;;
9222;SDS011;7557;51.698;3.942;2023-09-19T14:24:16;1779.30;;;999.90;;
9222;SDS011;7557;51.698;3.942;2023-09-19T14:26:45;1792.47;;;999.90;;
9222;SDS011;7557;51.698;3.942;2023-09-19T14:29:12;1831.45;;;999.90;;
9222;SDS011;7557;51.698;3.942;2023-09-19T14:31:40;1914.65;;;999.90;;
9222;SDS011;7557;51.698;3.942;2023-09-19T14:34:07;1737.43;;;999.90;;
9222;SDS011;7557;51.698;3.942;2023-09-19T14:36:35;1880.95;;;999.90;;
9222;SDS011;7557;51.698;3.942;2023-09-19T14:39:04;1816.75;;;999.90;;
9222;SDS011;7557;51.698;3.942;2023-09-19T14:41:31;1736.68;;;999.90;;
9222;SDS011;7557;51.698;3.942;2023-09-19T14:44:01;1750.03;;;999.90;;
9222;SDS011;7557;51.698;3.942;2023-09-19T14:46:30;1759.13;;;999.90;;
9222;SDS011;7557;51.698;3.942;2023-09-19T14:48:58;1760.20;;;999.90;;
9222;SDS011;7557;51.698;3.942;2023-09-19T14:51:28;1801.50;;;999.90;;
9222;SDS011;7557;51.698;3.942;2023-09-19T14:53:57;1856.30;;;999.90;;
9222;SDS011;7557;51.698;3.942;2023-09-19T14:56:27;1843.43;;;999.90;;
9222;SDS011;7557;51.698;3.942;2023-09-19T14:58:56;1856.55;;;999.90;;
9222;SDS011;7557;51.698;3.942;2023-09-19T15:01:25;1826.03;;;999.90;;